createdAt,value
2022-12-11T00:05:51.564Z,99271.56
2022-12-11T00:11:44.896Z,99265.03
2022-12-11T00:17:37.576Z,99273.88
2022-12-11T00:23:30.646Z,99273.75
2022-12-11T00:29:23.598Z,99273.88
2022-12-11T00:35:16.405Z,99283.16
2022-12-11T00:41:08.724Z,99283.25
2022-12-11T00:47:01.807Z,99273.66
2022-12-11T00:52:54.676Z,99274.38
2022-12-11T00:58:48.637Z,99257.75
2022-12-11T01:04:42.723Z,99267.03
2022-12-11T01:10:35.330Z,99274.81
2022-12-11T01:16:27.807Z,99281.31
2022-12-11T01:22:21.236Z,99286.94
2022-12-11T01:28:13.877Z,99289.22
2022-12-11T01:34:06.563Z,99283.53
2022-12-11T01:39:58.715Z,99281.06
2022-12-11T01:45:50.431Z,99284.84
2022-12-11T01:51:49.780Z,99281.19
2022-12-11T01:57:44.497Z,99265.16
2022-12-11T02:03:36.947Z,99248.47
2022-12-11T02:09:35.496Z,99247.00
2022-12-11T02:15:49.845Z,99240.16
2022-12-11T02:21:47.945Z,99231.16
2022-12-11T02:27:47.516Z,99224.88
2022-12-11T02:33:52.136Z,99225.41
2022-12-11T02:39:47.518Z,99235.56
2022-12-11T02:45:42.506Z,99238.44
2022-12-11T02:51:40.255Z,99240.06
2022-12-11T02:57:51.476Z,99235.22
2022-12-11T03:03:43.878Z,99240.78
2022-12-11T03:09:35.976Z,99245.34
2022-12-11T03:16:14.829Z,99243.88
2022-12-11T03:22:33.915Z,99240.38
2022-12-11T03:28:44.807Z,99244.44
2022-12-11T03:34:40.926Z,99256.50
2022-12-11T03:40:35.813Z,99244.63
2022-12-11T03:46:32.176Z,99243.84
2022-12-11T03:52:27.619Z,99241.78
2022-12-11T03:58:19.938Z,99241.03
2022-12-11T04:04:12.212Z,99221.22
2022-12-11T04:10:07.566Z,99217.03
2022-12-11T04:16:01.916Z,99228.16
2022-12-11T04:22:12.674Z,99218.34
2022-12-11T04:28:05.275Z,99214.31
2022-12-11T04:33:57.539Z,99217.44
2022-12-11T04:39:50.526Z,99214.25
2022-12-11T04:45:44.198Z,99208.28
2022-12-11T04:51:36.305Z,99205.50
2022-12-11T04:57:30.196Z,99208.31
2022-12-11T05:03:22.674Z,99203.34
2022-12-11T05:09:16.915Z,99194.81
2022-12-11T05:15:11.676Z,99205.09
2022-12-11T05:21:13.494Z,99193.19
2022-12-11T05:27:07.236Z,99191.06
2022-12-11T05:32:59.216Z,99190.94
2022-12-11T05:38:53.296Z,99190.25
2022-12-11T05:44:46.677Z,99183.41
2022-12-11T05:50:39.195Z,99181.78
2022-12-11T05:56:34.797Z,99187.19
2022-12-11T06:02:27.442Z,99194.47
2022-12-11T06:08:20.485Z,99196.19
2022-12-11T06:14:14.123Z,99206.47
2022-12-11T06:20:06.887Z,99207.13
2022-12-11T06:25:59.418Z,99208.78
2022-12-11T06:31:51.608Z,99216.41
2022-12-11T06:37:44.512Z,99238.94
2022-12-11T06:43:39.057Z,99231.91
2022-12-11T06:49:31.555Z,99231.91
2022-12-11T06:55:24.116Z,99247.75
2022-12-11T07:01:25.109Z,99235.59
2022-12-11T07:07:17.535Z,99240.03
2022-12-11T07:13:10.498Z,99244.66
2022-12-11T07:19:02.585Z,99246.03
2022-12-11T07:24:54.396Z,99240.81
2022-12-11T07:30:46.705Z,99260.78
2022-12-11T07:36:39.865Z,99250.06
2022-12-11T07:42:32.406Z,99243.66
2022-12-11T07:48:24.796Z,99244.66
2022-12-11T07:54:18.725Z,99238.34
2022-12-11T08:00:12.135Z,99247.94
2022-12-11T08:06:09.297Z,99249.13
2022-12-11T08:12:01.724Z,99254.44
2022-12-11T08:17:54.987Z,99240.81
2022-12-11T08:23:48.795Z,99246.72
2022-12-11T08:29:41.736Z,99242.59
2022-12-11T08:35:40.674Z,99241.00
2022-12-11T08:41:33.031Z,99246.47
2022-12-11T08:47:26.099Z,99240.72
2022-12-11T08:53:19.086Z,99250.66
2022-12-11T08:59:11.846Z,99254.97
2022-12-11T09:05:08.203Z,99259.31
2022-12-11T09:11:11.251Z,99249.66
2022-12-11T09:17:05.857Z,99241.31
2022-12-11T09:22:59.865Z,99217.06
2022-12-11T09:28:54.015Z,99222.22
2022-12-11T09:34:51.555Z,99207.31
2022-12-11T09:40:43.834Z,99204.81
2022-12-11T09:46:38.402Z,99208.84
2022-12-11T09:52:35.851Z,99192.78
2022-12-11T09:58:58.765Z,99185.69
2022-12-11T10:05:04.387Z,99183.09
2022-12-11T10:10:56.946Z,99190.28
2022-12-11T10:17:00.271Z,99173.88
2022-12-11T10:22:55.426Z,99170.56
2022-12-11T10:28:48.262Z,99161.16
2022-12-11T10:34:46.846Z,99154.25
2022-12-11T10:40:42.886Z,99158.13
2022-12-11T10:46:37.449Z,99162.59
2022-12-11T10:52:35.448Z,99147.31
2022-12-11T10:58:34.419Z,99145.25
2022-12-11T11:04:45.075Z,99141.84
2022-12-11T11:10:36.896Z,99134.66
2022-12-11T11:16:29.513Z,99120.78
2022-12-11T11:22:21.697Z,99113.25
2022-12-11T11:28:21.440Z,99115.59
2022-12-11T11:34:22.415Z,99097.19
2022-12-11T11:40:24.685Z,99106.53
2022-12-11T11:46:31.084Z,99102.56
2022-12-11T11:52:34.894Z,99100.03
2022-12-11T11:58:42.126Z,99089.88
2022-12-11T12:04:37.106Z,99084.28
2022-12-11T12:10:46.897Z,99095.38
2022-12-11T12:16:59.801Z,99086.56
2022-12-11T12:22:58.215Z,99091.06
2022-12-11T12:29:21.220Z,99080.16
2022-12-11T12:35:34.697Z,99088.31
2022-12-11T12:41:45.140Z,99089.63
2022-12-11T12:47:38.938Z,99086.84
2022-12-11T12:53:35.126Z,99080.81
2022-12-11T12:59:28.197Z,99075.22
2022-12-11T13:05:23.127Z,99094.44
2022-12-11T13:11:18.278Z,99084.97
2022-12-11T13:17:22.655Z,99094.59
2022-12-11T13:23:19.668Z,99084.50
2022-12-11T13:29:35.745Z,99083.53
2022-12-11T13:35:28.925Z,99076.72
2022-12-11T13:41:23.506Z,99084.94
2022-12-11T13:47:17.589Z,99096.84
2022-12-11T13:53:24.224Z,99095.06
2022-12-11T13:59:29.198Z,99093.09
2022-12-11T14:05:21.955Z,99090.00
2022-12-11T14:11:39.405Z,99094.38
2022-12-11T14:17:34.539Z,99091.81
2022-12-11T14:23:30.033Z,99097.56
2022-12-11T14:29:27.017Z,99099.38
2022-12-11T14:35:35.501Z,99089.44
2022-12-11T14:42:00.246Z,99088.25
2022-12-11T14:47:55.822Z,99084.13
2022-12-11T14:53:51.254Z,99080.63
2022-12-11T14:59:51.065Z,99096.59
2022-12-11T15:05:52.755Z,99078.91
2022-12-11T15:11:47.485Z,99089.69
2022-12-11T15:17:40.555Z,99085.25
2022-12-11T15:23:37.527Z,99090.88
2022-12-11T15:29:39.067Z,99095.16
2022-12-11T15:35:28.297Z,99096.53
2022-12-11T15:41:21.786Z,99092.94
2022-12-11T15:47:15.718Z,99090.63
2022-12-11T15:53:08.095Z,99095.31
2022-12-11T15:59:06.541Z,99085.47
2022-12-11T16:05:00.208Z,99101.75
2022-12-11T16:10:55.345Z,99102.94
2022-12-11T16:16:49.626Z,99093.88
2022-12-11T16:22:42.197Z,99109.91
2022-12-11T16:28:36.209Z,99102.81
2022-12-11T16:34:29.246Z,99091.97
2022-12-11T16:40:22.136Z,99095.91
2022-12-11T16:46:19.792Z,99086.09
2022-12-11T16:52:16.436Z,99095.31
2022-12-11T16:58:16.537Z,99092.41
2022-12-11T17:04:10.156Z,99083.00
2022-12-11T17:10:06.618Z,99070.78
2022-12-11T17:15:59.465Z,99065.28
2022-12-11T17:21:55.426Z,99068.91
2022-12-11T17:27:49.847Z,99071.38
2022-12-11T17:33:42.252Z,99069.38
2022-12-11T17:39:34.917Z,99073.88
2022-12-11T17:45:26.946Z,99077.97
2022-12-11T17:51:24.716Z,99077.78
2022-12-11T17:57:17.229Z,99074.69
2022-12-11T18:03:10.605Z,99072.91
2022-12-11T18:09:04.246Z,99084.38
2022-12-11T18:15:01.185Z,99082.94
2022-12-11T18:20:53.158Z,99096.97
2022-12-11T18:26:45.755Z,99100.88
2022-12-11T18:32:37.874Z,99091.41
2022-12-11T18:38:30.458Z,99090.09
2022-12-11T18:44:23.174Z,99089.50
2022-12-11T18:50:15.436Z,99097.63
2022-12-11T18:56:10.905Z,99095.06
2022-12-11T19:02:03.657Z,99086.16
2022-12-11T19:07:58.800Z,99088.72
2022-12-11T19:13:56.837Z,99077.88
2022-12-11T19:19:49.427Z,99064.84
2022-12-11T19:25:44.155Z,99064.53
2022-12-11T19:31:40.195Z,99067.59
2022-12-11T19:37:38.690Z,99080.44
2022-12-11T19:43:33.782Z,99071.63
2022-12-11T19:49:30.055Z,99077.69
2022-12-11T19:55:23.646Z,99067.84
2022-12-11T20:01:26.166Z,99073.94
2022-12-11T20:07:18.396Z,99071.88
2022-12-11T20:13:12.555Z,99069.75
2022-12-11T20:19:06.756Z,99068.53
2022-12-11T20:25:03.828Z,99066.69
2022-12-11T20:31:07.618Z,99068.13
2022-12-11T20:37:01.435Z,99068.63
2022-12-11T20:42:55.166Z,99072.16
2022-12-11T20:48:50.685Z,99065.66
2022-12-11T20:54:46.706Z,99056.06
2022-12-11T21:00:39.981Z,99048.47
2022-12-11T21:06:35.456Z,99044.66
2022-12-11T21:12:31.488Z,99052.03
2022-12-11T21:18:25.206Z,99046.63
2022-12-11T21:24:23.787Z,99045.19
2022-12-11T21:30:17.117Z,99045.69
2022-12-11T21:36:12.267Z,99045.88
2022-12-11T21:42:04.925Z,99048.63
2022-12-11T21:47:57.765Z,99039.28
2022-12-11T21:53:52.057Z,99046.91
2022-12-11T21:59:45.794Z,99043.75
2022-12-11T22:05:38.406Z,99045.53
2022-12-11T22:11:34.255Z,99043.91
2022-12-11T22:17:28.835Z,99046.91
2022-12-11T22:23:09.119Z,99034.06
2022-12-11T22:28:49.836Z,99036.13
2022-12-11T22:34:30.605Z,99037.00
2022-12-11T22:40:11.085Z,99034.00
2022-12-11T22:45:51.233Z,99040.16
2022-12-11T22:51:31.957Z,99039.88
2022-12-11T22:57:11.920Z,99044.44
2022-12-11T23:02:52.733Z,99026.03
2022-12-11T23:08:32.553Z,99034.69
2022-12-11T23:14:15.634Z,99025.38
2022-12-11T23:20:08.405Z,99018.84
2022-12-11T23:26:01.121Z,99024.72
2022-12-11T23:31:53.645Z,99026.63
2022-12-11T23:37:46.757Z,99017.34
2022-12-11T23:43:41.955Z,99019.91
2022-12-11T23:49:34.087Z,99025.09
2022-12-11T23:55:27.751Z,99022.25
